sensor_id;sensor_type;location;lat;lon;timestamp;temperature;humidity
43015;DHT22;28637;50.554;7.032;2023-03-20T00:00:06;10.00;99.90
43015;DHT22;28637;50.554;7.032;2023-03-20T00:05:17;10.00;99.90
43015;DHT22;28637;50.554;7.032;2023-03-20T00:10:20;10.00;99.90
43015;DHT22;28637;50.554;7.032;2023-03-20T00:15:32;10.00;99.90
43015;DHT22;28637;50.554;7.032;2023-03-20T00:20:34;9.90;99.90
43015;DHT22;28637;50.554;7.032;2023-03-20T00:25:37;9.90;99.90
43015;DHT22;28637;50.554;7.032;2023-03-20T00:30:38;9.90;99.90
43015;DHT22;28637;50.554;7.032;2023-03-20T00:35:39;9.90;99.90
43015;DHT22;28637;50.554;7.032;2023-03-20T00:40:40;9.90;99.90
43015;DHT22;28637;50.554;7.032;2023-03-20T00:45:41;9.90;99.90
43015;DHT22;28637;50.554;7.032;2023-03-20T00:50:43;9.90;99.90
43015;DHT22;28637;50.554;7.032;2023-03-20T00:55:44;9.90;99.90
43015;DHT22;28637;50.554;7.032;2023-03-20T01:00:45;9.80;99.90
43015;DHT22;28637;50.554;7.032;2023-03-20T01:05:46;9.90;99.90
43015;DHT22;28637;50.554;7.032;2023-03-20T01:10:49;9.80;99.90
43015;DHT22;28637;50.554;7.032;2023-03-20T01:15:52;9.60;99.90
43015;DHT22;28637;50.554;7.032;2023-03-20T01:20:52;9.60;99.90
43015;DHT22;28637;50.554;7.032;2023-03-20T01:25:53;9.50;99.90
43015;DHT22;28637;50.554;7.032;2023-03-20T01:30:54;9.50;99.90
43015;DHT22;28637;50.554;7.032;2023-03-20T01:35:54;9.50;99.90
43015;DHT22;28637;50.554;7.032;2023-03-20T01:41:07;9.50;99.90
43015;DHT22;28637;50.554;7.032;2023-03-20T01:51:28;9.50;99.90
43015;DHT22;28637;50.554;7.032;2023-03-20T01:56:36;9.50;99.90
43015;DHT22;28637;50.554;7.032;2023-03-20T02:01:38;9.50;99.90
43015;DHT22;28637;50.554;7.032;2023-03-20T02:06:40;9.50;99.90
43015;DHT22;28637;50.554;7.032;2023-03-20T02:11:42;9.60;99.90
43015;DHT22;28637;50.554;7.032;2023-03-20T02:16:44;9.60;99.90
43015;DHT22;28637;50.554;7.032;2023-03-20T02:27:38;9.60;99.90
43015;DHT22;28637;50.554;7.032;2023-03-20T02:38:29;9.80;99.90
43015;DHT22;28637;50.554;7.032;2023-03-20T02:43:43;9.90;99.90
43015;DHT22;28637;50.554;7.032;2023-03-20T02:54:50;9.80;99.90
43015;DHT22;28637;50.554;7.032;2023-03-20T03:00:23;9.70;99.90
43015;DHT22;28637;50.554;7.032;2023-03-20T03:05:36;9.70;99.90
43015;DHT22;28637;50.554;7.032;2023-03-20T03:10:42;9.70;99.90
43015;DHT22;28637;50.554;7.032;2023-03-20T03:15:46;9.60;99.90
43015;DHT22;28637;50.554;7.032;2023-03-20T03:20:53;9.60;99.90
43015;DHT22;28637;50.554;7.032;2023-03-20T03:25:56;9.70;99.90
43015;DHT22;28637;50.554;7.032;2023-03-20T03:30:59;9.70;99.90
43015;DHT22;28637;50.554;7.032;2023-03-20T03:46:31;9.50;99.90
43015;DHT22;28637;50.554;7.032;2023-03-20T03:51:38;9.40;99.90
43015;DHT22;28637;50.554;7.032;2023-03-20T03:56:42;9.40;99.90
43015;DHT22;28637;50.554;7.032;2023-03-20T04:01:45;9.20;99.90
43015;DHT22;28637;50.554;7.032;2023-03-20T04:06:46;9.00;99.90
43015;DHT22;28637;50.554;7.032;2023-03-20T04:11:50;9.00;99.90
43015;DHT22;28637;50.554;7.032;2023-03-20T04:16:51;8.90;99.90
43015;DHT22;28637;50.554;7.032;2023-03-20T04:21:51;8.30;99.90
43015;DHT22;28637;50.554;7.032;2023-03-20T04:26:54;7.90;99.90
43015;DHT22;28637;50.554;7.032;2023-03-20T04:31:55;7.80;99.90
43015;DHT22;28637;50.554;7.032;2023-03-20T04:36:56;7.90;99.90
43015;DHT22;28637;50.554;7.032;2023-03-20T04:41:57;8.00;99.90
43015;DHT22;28637;50.554;7.032;2023-03-20T04:46:57;8.10;99.90
43015;DHT22;28637;50.554;7.032;2023-03-20T04:51:58;8.30;99.90
43015;DHT22;28637;50.554;7.032;2023-03-20T04:56:58;8.40;99.90
43015;DHT22;28637;50.554;7.032;2023-03-20T05:01:59;8.60;99.90
43015;DHT22;28637;50.554;7.032;2023-03-20T05:07:00;8.60;99.90
43015;DHT22;28637;50.554;7.032;2023-03-20T05:12:01;8.60;99.90
43015;DHT22;28637;50.554;7.032;2023-03-20T05:17:01;8.70;99.90
43015;DHT22;28637;50.554;7.032;2023-03-20T05:22:02;8.70;99.90
43015;DHT22;28637;50.554;7.032;2023-03-20T05:27:03;8.70;99.90
43015;DHT22;28637;50.554;7.032;2023-03-20T05:32:03;8.80;99.90
43015;DHT22;28637;50.554;7.032;2023-03-20T05:37:04;8.70;99.90
43015;DHT22;28637;50.554;7.032;2023-03-20T05:42:05;8.60;99.90
43015;DHT22;28637;50.554;7.032;2023-03-20T05:47:05;8.60;99.90
43015;DHT22;28637;50.554;7.032;2023-03-20T05:52:06;8.60;99.90
43015;DHT22;28637;50.554;7.032;2023-03-20T05:57:07;8.40;99.90
43015;DHT22;28637;50.554;7.032;2023-03-20T06:02:07;8.10;99.90
43015;DHT22;28637;50.554;7.032;2023-03-20T06:07:08;7.70;99.90
43015;DHT22;28637;50.554;7.032;2023-03-20T06:12:09;7.40;99.90
43015;DHT22;28637;50.554;7.032;2023-03-20T06:17:09;7.20;99.90
43015;DHT22;28637;50.554;7.032;2023-03-20T06:22:10;7.20;99.90
43015;DHT22;28637;50.554;7.032;2023-03-20T06:27:11;7.50;99.90
43015;DHT22;28637;50.554;7.032;2023-03-20T06:32:12;7.60;99.90
43015;DHT22;28637;50.554;7.032;2023-03-20T06:37:14;7.70;99.90
43015;DHT22;28637;50.554;7.032;2023-03-20T06:42:15;7.80;99.90
43015;DHT22;28637;50.554;7.032;2023-03-20T06:47:16;7.90;99.90
43015;DHT22;28637;50.554;7.032;2023-03-20T06:52:18;8.00;99.90
43015;DHT22;28637;50.554;7.032;2023-03-20T06:57:21;8.10;99.90
43015;DHT22;28637;50.554;7.032;2023-03-20T07:02:21;8.30;99.90
43015;DHT22;28637;50.554;7.032;2023-03-20T07:07:22;8.40;99.90
43015;DHT22;28637;50.554;7.032;2023-03-20T07:12:23;8.30;99.90
43015;DHT22;28637;50.554;7.032;2023-03-20T07:17:28;8.20;99.90
43015;DHT22;28637;50.554;7.032;2023-03-20T07:22:29;8.20;99.90
43015;DHT22;28637;50.554;7.032;2023-03-20T07:27:31;8.00;99.90
43015;DHT22;28637;50.554;7.032;2023-03-20T07:32:31;8.10;99.90
43015;DHT22;28637;50.554;7.032;2023-03-20T07:37:32;8.20;99.90
43015;DHT22;28637;50.554;7.032;2023-03-20T07:42:33;8.40;99.90
43015;DHT22;28637;50.554;7.032;2023-03-20T07:47:35;8.60;99.90
43015;DHT22;28637;50.554;7.032;2023-03-20T07:52:35;8.70;99.90
43015;DHT22;28637;50.554;7.032;2023-03-20T07:57:36;8.90;99.90
43015;DHT22;28637;50.554;7.032;2023-03-20T08:02:36;9.00;99.90
43015;DHT22;28637;50.554;7.032;2023-03-20T08:07:37;9.10;99.90
43015;DHT22;28637;50.554;7.032;2023-03-20T08:12:38;9.00;99.90
43015;DHT22;28637;50.554;7.032;2023-03-20T08:17:42;8.90;99.90
43015;DHT22;28637;50.554;7.032;2023-03-20T08:22:44;8.90;99.90
43015;DHT22;28637;50.554;7.032;2023-03-20T08:27:45;9.10;99.90
43015;DHT22;28637;50.554;7.032;2023-03-20T08:32:46;9.10;99.90
43015;DHT22;28637;50.554;7.032;2023-03-20T08:37:46;9.00;99.90
43015;DHT22;28637;50.554;7.032;2023-03-20T08:42:47;9.00;99.90
43015;DHT22;28637;50.554;7.032;2023-03-20T08:47:48;9.00;99.90
43015;DHT22;28637;50.554;7.032;2023-03-20T08:52:49;9.10;99.90
43015;DHT22;28637;50.554;7.032;2023-03-20T08:57:49;9.00;99.90
43015;DHT22;28637;50.554;7.032;2023-03-20T09:02:50;9.00;99.90
43015;DHT22;28637;50.554;7.032;2023-03-20T09:07:51;9.10;99.90
43015;DHT22;28637;50.554;7.032;2023-03-20T09:12:52;9.20;99.90
43015;DHT22;28637;50.554;7.032;2023-03-20T09:17:53;9.10;99.90
43015;DHT22;28637;50.554;7.032;2023-03-20T09:22:55;9.10;99.90
43015;DHT22;28637;50.554;7.032;2023-03-20T09:27:56;9.10;99.90
43015;DHT22;28637;50.554;7.032;2023-03-20T09:32:56;9.00;99.90
43015;DHT22;28637;50.554;7.032;2023-03-20T09:37:57;8.90;99.90
43015;DHT22;28637;50.554;7.032;2023-03-20T09:48:42;9.00;99.90
43015;DHT22;28637;50.554;7.032;2023-03-20T09:53:54;9.00;99.90
43015;DHT22;28637;50.554;7.032;2023-03-20T09:59:01;8.90;99.90
43015;DHT22;28637;50.554;7.032;2023-03-20T10:04:08;8.90;99.90
43015;DHT22;28637;50.554;7.032;2023-03-20T10:09:29;8.90;99.90
43015;DHT22;28637;50.554;7.032;2023-03-20T10:20:32;9.00;99.90
43015;DHT22;28637;50.554;7.032;2023-03-20T10:25:41;9.00;99.90
43015;DHT22;28637;50.554;7.032;2023-03-20T10:41:56;9.00;99.90
43015;DHT22;28637;50.554;7.032;2023-03-20T10:47:00;9.10;99.90
43015;DHT22;28637;50.554;7.032;2023-03-20T10:52:09;9.30;99.90
43015;DHT22;28637;50.554;7.032;2023-03-20T10:57:23;9.50;99.90
43015;DHT22;28637;50.554;7.032;2023-03-20T11:02:28;9.50;99.90
43015;DHT22;28637;50.554;7.032;2023-03-20T11:07:34;9.60;99.90
43015;DHT22;28637;50.554;7.032;2023-03-20T11:12:39;9.60;99.90
43015;DHT22;28637;50.554;7.032;2023-03-20T11:17:40;9.70;99.90
43015;DHT22;28637;50.554;7.032;2023-03-20T11:22:41;9.60;99.90
43015;DHT22;28637;50.554;7.032;2023-03-20T11:27:41;9.70;99.90
43015;DHT22;28637;50.554;7.032;2023-03-20T11:32:47;9.70;99.90
43015;DHT22;28637;50.554;7.032;2023-03-20T11:37:51;9.60;99.90
43015;DHT22;28637;50.554;7.032;2023-03-20T11:42:54;9.50;99.90
43015;DHT22;28637;50.554;7.032;2023-03-20T11:47:56;9.30;99.90
43015;DHT22;28637;50.554;7.032;2023-03-20T11:52:57;9.20;99.90
43015;DHT22;28637;50.554;7.032;2023-03-20T11:58:02;9.20;99.90
43015;DHT22;28637;50.554;7.032;2023-03-20T12:03:05;9.50;99.90
43015;DHT22;28637;50.554;7.032;2023-03-20T12:08:26;9.40;99.90
43015;DHT22;28637;50.554;7.032;2023-03-20T12:13:34;9.60;99.90
43015;DHT22;28637;50.554;7.032;2023-03-20T12:18:46;9.60;99.90
43015;DHT22;28637;50.554;7.032;2023-03-20T12:23:59;9.70;99.90
43015;DHT22;28637;50.554;7.032;2023-03-20T12:29:31;9.90;99.90
43015;DHT22;28637;50.554;7.032;2023-03-20T12:34:41;9.80;99.90
43015;DHT22;28637;50.554;7.032;2023-03-20T12:39:53;9.80;99.90
43015;DHT22;28637;50.554;7.032;2023-03-20T12:45:00;9.40;99.90
43015;DHT22;28637;50.554;7.032;2023-03-20T12:50:13;9.50;99.90
43015;DHT22;28637;50.554;7.032;2023-03-20T13:00:39;9.60;99.90
43015;DHT22;28637;50.554;7.032;2023-03-20T13:11:35;9.50;99.90
43015;DHT22;28637;50.554;7.032;2023-03-20T13:17:04;9.70;99.90
43015;DHT22;28637;50.554;7.032;2023-03-20T13:22:29;9.60;99.90
43015;DHT22;28637;50.554;7.032;2023-03-20T13:27:39;9.50;99.90
43015;DHT22;28637;50.554;7.032;2023-03-20T13:33:35;9.50;99.90
43015;DHT22;28637;50.554;7.032;2023-03-20T13:38:22;9.70;99.90
43015;DHT22;28637;50.554;7.032;2023-03-20T13:43:37;9.50;99.90
43015;DHT22;28637;50.554;7.032;2023-03-20T13:48:43;9.70;99.90
43015;DHT22;28637;50.554;7.032;2023-03-20T13:54:12;9.80;99.90
43015;DHT22;28637;50.554;7.032;2023-03-20T14:04:30;9.80;99.90
43015;DHT22;28637;50.554;7.032;2023-03-20T14:09:36;10.00;99.90
43015;DHT22;28637;50.554;7.032;2023-03-20T14:14:42;9.90;99.90
43015;DHT22;28637;50.554;7.032;2023-03-20T14:19:47;9.90;99.90
43015;DHT22;28637;50.554;7.032;2023-03-20T14:24:58;10.00;99.90
43015;DHT22;28637;50.554;7.032;2023-03-20T14:35:48;10.60;99.90
43015;DHT22;28637;50.554;7.032;2023-03-20T14:40:58;10.20;99.90
43015;DHT22;28637;50.554;7.032;2023-03-20T14:46:07;10.00;99.90
43015;DHT22;28637;50.554;7.032;2023-03-20T14:51:38;10.00;99.90
43015;DHT22;28637;50.554;7.032;2023-03-20T14:56:40;10.00;99.90
43015;DHT22;28637;50.554;7.032;2023-03-20T15:01:45;9.90;99.90
43015;DHT22;28637;50.554;7.032;2023-03-20T15:07:05;9.90;99.90
43015;DHT22;28637;50.554;7.032;2023-03-20T15:12:13;10.00;99.90
43015;DHT22;28637;50.554;7.032;2023-03-20T15:17:39;10.10;99.90
43015;DHT22;28637;50.554;7.032;2023-03-20T15:22:57;10.10;99.90
43015;DHT22;28637;50.554;7.032;2023-03-20T15:27:58;10.20;99.90
43015;DHT22;28637;50.554;7.032;2023-03-20T15:32:59;10.30;99.90
43015;DHT22;28637;50.554;7.032;2023-03-20T15:38:05;10.60;99.90
43015;DHT22;28637;50.554;7.032;2023-03-20T15:43:22;10.60;99.90
43015;DHT22;28637;50.554;7.032;2023-03-20T15:48:24;10.80;99.90
43015;DHT22;28637;50.554;7.032;2023-03-20T15:53:35;10.80;99.90
43015;DHT22;28637;50.554;7.032;2023-03-20T15:58:37;10.60;99.90
43015;DHT22;28637;50.554;7.032;2023-03-20T16:03:38;10.60;99.90
43015;DHT22;28637;50.554;7.032;2023-03-20T16:08:40;10.50;99.90
43015;DHT22;28637;50.554;7.032;2023-03-20T16:13:42;10.40;99.90
43015;DHT22;28637;50.554;7.032;2023-03-20T16:18:46;10.20;99.90
43015;DHT22;28637;50.554;7.032;2023-03-20T16:23:51;10.00;99.90
43015;DHT22;28637;50.554;7.032;2023-03-20T16:28:58;10.00;99.90
43015;DHT22;28637;50.554;7.032;2023-03-20T16:34:03;10.00;99.90
43015;DHT22;28637;50.554;7.032;2023-03-20T16:39:15;10.00;99.90
43015;DHT22;28637;50.554;7.032;2023-03-20T16:44:19;10.00;99.90
43015;DHT22;28637;50.554;7.032;2023-03-20T16:54:33;10.00;99.90
43015;DHT22;28637;50.554;7.032;2023-03-20T16:59:38;10.00;99.90
43015;DHT22;28637;50.554;7.032;2023-03-20T17:04:39;10.00;99.90
43015;DHT22;28637;50.554;7.032;2023-03-20T17:10:00;10.00;99.90
43015;DHT22;28637;50.554;7.032;2023-03-20T17:15:21;9.90;99.90
43015;DHT22;28637;50.554;7.032;2023-03-20T17:20:25;9.90;99.90
43015;DHT22;28637;50.554;7.032;2023-03-20T17:25:26;9.90;99.90
43015;DHT22;28637;50.554;7.032;2023-03-20T17:30:26;9.90;99.90
43015;DHT22;28637;50.554;7.032;2023-03-20T17:35:27;9.90;99.90
43015;DHT22;28637;50.554;7.032;2023-03-20T17:40:28;9.90;99.90
43015;DHT22;28637;50.554;7.032;2023-03-20T17:45:28;9.80;99.90
43015;DHT22;28637;50.554;7.032;2023-03-20T17:50:29;9.80;99.90
43015;DHT22;28637;50.554;7.032;2023-03-20T17:55:30;9.70;99.90
43015;DHT22;28637;50.554;7.032;2023-03-20T18:00:30;9.60;99.90
43015;DHT22;28637;50.554;7.032;2023-03-20T18:05:31;9.60;99.90
43015;DHT22;28637;50.554;7.032;2023-03-20T18:10:33;9.50;99.90
43015;DHT22;28637;50.554;7.032;2023-03-20T18:15:36;9.50;99.90
43015;DHT22;28637;50.554;7.032;2023-03-20T18:20:40;9.50;99.90
43015;DHT22;28637;50.554;7.032;2023-03-20T18:25:41;9.40;99.90
43015;DHT22;28637;50.554;7.032;2023-03-20T18:30:42;9.40;99.90
43015;DHT22;28637;50.554;7.032;2023-03-20T18:35:43;9.30;99.90
43015;DHT22;28637;50.554;7.032;2023-03-20T18:40:44;9.40;99.90
43015;DHT22;28637;50.554;7.032;2023-03-20T18:45:46;9.40;99.90
43015;DHT22;28637;50.554;7.032;2023-03-20T18:50:47;9.40;99.90
43015;DHT22;28637;50.554;7.032;2023-03-20T18:55:50;9.30;99.90
43015;DHT22;28637;50.554;7.032;2023-03-20T19:00:52;9.20;99.90
43015;DHT22;28637;50.554;7.032;2023-03-20T19:05:55;9.10;99.90
43015;DHT22;28637;50.554;7.032;2023-03-20T19:10:57;9.50;99.90
43015;DHT22;28637;50.554;7.032;2023-03-20T19:15:57;9.50;99.90
43015;DHT22;28637;50.554;7.032;2023-03-20T19:20:58;9.50;99.90
43015;DHT22;28637;50.554;7.032;2023-03-20T19:25:59;9.40;99.90
43015;DHT22;28637;50.554;7.032;2023-03-20T19:30:59;9.30;99.90
43015;DHT22;28637;50.554;7.032;2023-03-20T19:36:01;9.20;99.90
43015;DHT22;28637;50.554;7.032;2023-03-20T19:41:01;9.20;99.90
43015;DHT22;28637;50.554;7.032;2023-03-20T19:46:03;9.30;99.90
43015;DHT22;28637;50.554;7.032;2023-03-20T19:51:04;9.40;99.90
43015;DHT22;28637;50.554;7.032;2023-03-20T19:56:05;9.40;99.90
43015;DHT22;28637;50.554;7.032;2023-03-20T20:01:07;9.60;99.90
43015;DHT22;28637;50.554;7.032;2023-03-20T20:06:11;9.60;99.90
43015;DHT22;28637;50.554;7.032;2023-03-20T20:11:11;9.70;99.90
43015;DHT22;28637;50.554;7.032;2023-03-20T20:16:13;9.70;99.90
43015;DHT22;28637;50.554;7.032;2023-03-20T20:21:14;9.80;99.90
43015;DHT22;28637;50.554;7.032;2023-03-20T20:26:15;9.90;99.90
43015;DHT22;28637;50.554;7.032;2023-03-20T20:31:16;9.80;99.90
43015;DHT22;28637;50.554;7.032;2023-03-20T20:36:17;9.90;99.90
43015;DHT22;28637;50.554;7.032;2023-03-20T20:41:17;9.90;99.90
43015;DHT22;28637;50.554;7.032;2023-03-20T20:46:18;9.90;99.90
43015;DHT22;28637;50.554;7.032;2023-03-20T20:51:19;9.80;99.90
43015;DHT22;28637;50.554;7.032;2023-03-20T20:56:21;9.70;99.90
43015;DHT22;28637;50.554;7.032;2023-03-20T21:01:22;9.70;99.90
43015;DHT22;28637;50.554;7.032;2023-03-20T21:06:23;9.60;99.90
43015;DHT22;28637;50.554;7.032;2023-03-20T21:11:23;9.50;99.90
43015;DHT22;28637;50.554;7.032;2023-03-20T21:16:24;9.50;99.90
43015;DHT22;28637;50.554;7.032;2023-03-20T21:21:25;9.40;99.90
43015;DHT22;28637;50.554;7.032;2023-03-20T21:26:26;9.50;99.90
43015;DHT22;28637;50.554;7.032;2023-03-20T21:31:27;9.50;99.90
43015;DHT22;28637;50.554;7.032;2023-03-20T21:36:28;9.50;99.90
43015;DHT22;28637;50.554;7.032;2023-03-20T21:41:29;9.40;99.90
43015;DHT22;28637;50.554;7.032;2023-03-20T21:46:30;9.50;99.90
43015;DHT22;28637;50.554;7.032;2023-03-20T21:51:30;9.50;99.90
43015;DHT22;28637;50.554;7.032;2023-03-20T21:56:31;9.60;99.90
43015;DHT22;28637;50.554;7.032;2023-03-20T22:01:32;9.60;99.90
43015;DHT22;28637;50.554;7.032;2023-03-20T22:06:32;9.70;99.90
43015;DHT22;28637;50.554;7.032;2023-03-20T22:11:34;9.60;99.90
43015;DHT22;28637;50.554;7.032;2023-03-20T22:16:35;9.50;99.90
43015;DHT22;28637;50.554;7.032;2023-03-20T22:21:36;9.40;99.90
43015;DHT22;28637;50.554;7.032;2023-03-20T22:26:38;9.40;99.90
43015;DHT22;28637;50.554;7.032;2023-03-20T22:31:39;9.40;99.90
43015;DHT22;28637;50.554;7.032;2023-03-20T22:36:39;9.40;99.90
43015;DHT22;28637;50.554;7.032;2023-03-20T22:41:40;9.30;99.90
43015;DHT22;28637;50.554;7.032;2023-03-20T22:46:43;9.30;99.90
43015;DHT22;28637;50.554;7.032;2023-03-20T22:51:44;9.20;99.90
43015;DHT22;28637;50.554;7.032;2023-03-20T22:56:45;9.20;99.90
43015;DHT22;28637;50.554;7.032;2023-03-20T23:01:46;9.20;99.90
43015;DHT22;28637;50.554;7.032;2023-03-20T23:06:46;9.20;99.90
43015;DHT22;28637;50.554;7.032;2023-03-20T23:11:47;9.20;99.90
43015;DHT22;28637;50.554;7.032;2023-03-20T23:16:48;9.20;99.90
43015;DHT22;28637;50.554;7.032;2023-03-20T23:21:50;9.30;99.90
43015;DHT22;28637;50.554;7.032;2023-03-20T23:26:50;9.40;99.90
43015;DHT22;28637;50.554;7.032;2023-03-20T23:31:53;9.50;99.90
43015;DHT22;28637;50.554;7.032;2023-03-20T23:36:54;9.50;99.90
43015;DHT22;28637;50.554;7.032;2023-03-20T23:41:55;9.60;99.90
43015;DHT22;28637;50.554;7.032;2023-03-20T23:46:56;9.60;99.90
43015;DHT22;28637;50.554;7.032;2023-03-20T23:51:57;9.60;99.90
43015;DHT22;28637;50.554;7.032;2023-03-20T23:56:57;9.60;99.90
